sensor_id;sensor_type;location;lat;lon;timestamp;P1;durP1;ratioP1;P2;durP2;ratioP2
37843;SDS011;63793;57.632;18.292;2024-02-14T00:00:24;15.93;;;6.13;;
37843;SDS011;63793;57.632;18.292;2024-02-14T00:02:51;22.15;;;6.10;;
37843;SDS011;63793;57.632;18.292;2024-02-14T00:05:18;16.95;;;5.47;;
37843;SDS011;63793;57.632;18.292;2024-02-14T00:07:45;13.20;;;6.10;;
37843;SDS011;63793;57.632;18.292;2024-02-14T00:10:12;14.20;;;6.25;;
37843;SDS011;63793;57.632;18.292;2024-02-14T00:12:39;17.58;;;7.18;;
37843;SDS011;63793;57.632;18.292;2024-02-14T00:15:06;9.73;;;5.93;;
37843;SDS011;63793;57.632;18.292;2024-02-14T00:17:34;11.57;;;6.95;;
37843;SDS011;63793;57.632;18.292;2024-02-14T00:20:02;18.17;;;9.43;;
37843;SDS011;63793;57.632;18.292;2024-02-14T00:22:30;17.40;;;6.55;;
37843;SDS011;63793;57.632;18.292;2024-02-14T00:24:57;9.00;;;5.57;;
37843;SDS011;63793;57.632;18.292;2024-02-14T00:27:24;17.30;;;6.88;;
37843;SDS011;63793;57.632;18.292;2024-02-14T00:29:53;16.92;;;7.90;;
37843;SDS011;63793;57.632;18.292;2024-02-14T00:32:21;11.52;;;6.13;;
37843;SDS011;63793;57.632;18.292;2024-02-14T00:34:49;13.98;;;5.72;;
37843;SDS011;63793;57.632;18.292;2024-02-14T00:37:17;17.52;;;6.75;;
37843;SDS011;63793;57.632;18.292;2024-02-14T00:39:45;12.82;;;6.80;;
37843;SDS011;63793;57.632;18.292;2024-02-14T00:42:15;12.80;;;5.63;;
37843;SDS011;63793;57.632;18.292;2024-02-14T00:44:42;18.73;;;7.75;;
37843;SDS011;63793;57.632;18.292;2024-02-14T00:47:09;11.65;;;6.18;;
37843;SDS011;63793;57.632;18.292;2024-02-14T00:49:37;13.25;;;6.85;;
37843;SDS011;63793;57.632;18.292;2024-02-14T00:52:05;19.67;;;7.70;;
37843;SDS011;63793;57.632;18.292;2024-02-14T00:54:34;21.13;;;7.93;;
37843;SDS011;63793;57.632;18.292;2024-02-14T00:57:01;16.55;;;7.95;;
37843;SDS011;63793;57.632;18.292;2024-02-14T00:59:28;11.52;;;7.07;;
37843;SDS011;63793;57.632;18.292;2024-02-14T01:01:55;18.52;;;8.43;;
37843;SDS011;63793;57.632;18.292;2024-02-14T01:04:22;14.88;;;8.18;;
37843;SDS011;63793;57.632;18.292;2024-02-14T01:06:49;15.23;;;6.82;;
37843;SDS011;63793;57.632;18.292;2024-02-14T01:09:18;20.60;;;6.80;;
37843;SDS011;63793;57.632;18.292;2024-02-14T01:11:45;13.20;;;7.93;;
37843;SDS011;63793;57.632;18.292;2024-02-14T01:14:12;12.05;;;5.65;;
37843;SDS011;63793;57.632;18.292;2024-02-14T01:16:43;16.95;;;5.97;;
37843;SDS011;63793;57.632;18.292;2024-02-14T01:19:11;14.95;;;6.03;;
37843;SDS011;63793;57.632;18.292;2024-02-14T01:21:39;19.15;;;8.57;;
37843;SDS011;63793;57.632;18.292;2024-02-14T01:24:06;16.63;;;6.80;;
37843;SDS011;63793;57.632;18.292;2024-02-14T01:26:35;12.80;;;5.75;;
37843;SDS011;63793;57.632;18.292;2024-02-14T01:29:02;16.70;;;7.78;;
37843;SDS011;63793;57.632;18.292;2024-02-14T01:31:29;13.90;;;6.43;;
37843;SDS011;63793;57.632;18.292;2024-02-14T01:33:56;15.57;;;6.95;;
37843;SDS011;63793;57.632;18.292;2024-02-14T01:36:24;21.63;;;6.93;;
37843;SDS011;63793;57.632;18.292;2024-02-14T01:38:51;16.02;;;8.27;;
37843;SDS011;63793;57.632;18.292;2024-02-14T01:41:18;16.25;;;6.97;;
37843;SDS011;63793;57.632;18.292;2024-02-14T01:43:45;16.70;;;7.45;;
37843;SDS011;63793;57.632;18.292;2024-02-14T01:46:12;16.75;;;6.68;;
37843;SDS011;63793;57.632;18.292;2024-02-14T01:48:40;18.73;;;7.20;;
37843;SDS011;63793;57.632;18.292;2024-02-14T01:51:11;21.00;;;6.38;;
37843;SDS011;63793;57.632;18.292;2024-02-14T01:53:39;13.13;;;6.07;;
37843;SDS011;63793;57.632;18.292;2024-02-14T01:56:07;13.98;;;6.60;;
37843;SDS011;63793;57.632;18.292;2024-02-14T01:58:34;16.30;;;6.63;;
37843;SDS011;63793;57.632;18.292;2024-02-14T02:01:01;21.67;;;7.22;;
37843;SDS011;63793;57.632;18.292;2024-02-14T02:03:29;26.27;;;7.38;;
37843;SDS011;63793;57.632;18.292;2024-02-14T02:06:02;16.80;;;6.57;;
37843;SDS011;63793;57.632;18.292;2024-02-14T02:08:30;19.15;;;5.97;;
37843;SDS011;63793;57.632;18.292;2024-02-14T02:10:57;22.95;;;7.13;;
37843;SDS011;63793;57.632;18.292;2024-02-14T02:13:24;14.93;;;5.35;;
37843;SDS011;63793;57.632;18.292;2024-02-14T02:15:52;21.83;;;7.72;;
37843;SDS011;63793;57.632;18.292;2024-02-14T02:18:19;14.27;;;7.22;;
37843;SDS011;63793;57.632;18.292;2024-02-14T02:20:47;22.70;;;7.43;;
37843;SDS011;63793;57.632;18.292;2024-02-14T02:23:14;22.58;;;7.03;;
37843;SDS011;63793;57.632;18.292;2024-02-14T02:25:41;22.63;;;6.45;;
37843;SDS011;63793;57.632;18.292;2024-02-14T02:28:09;18.10;;;6.90;;
37843;SDS011;63793;57.632;18.292;2024-02-14T02:30:36;27.38;;;8.02;;
37843;SDS011;63793;57.632;18.292;2024-02-14T02:33:04;21.42;;;8.05;;
37843;SDS011;63793;57.632;18.292;2024-02-14T02:35:32;17.15;;;6.78;;
37843;SDS011;63793;57.632;18.292;2024-02-14T02:38:00;16.50;;;6.10;;
37843;SDS011;63793;57.632;18.292;2024-02-14T02:40:27;18.63;;;7.25;;
37843;SDS011;63793;57.632;18.292;2024-02-14T02:42:54;12.93;;;6.00;;
37843;SDS011;63793;57.632;18.292;2024-02-14T02:45:21;15.30;;;6.45;;
37843;SDS011;63793;57.632;18.292;2024-02-14T02:47:48;16.83;;;5.80;;
37843;SDS011;63793;57.632;18.292;2024-02-14T02:50:19;27.70;;;7.78;;
37843;SDS011;63793;57.632;18.292;2024-02-14T02:52:48;17.80;;;9.55;;
37843;SDS011;63793;57.632;18.292;2024-02-14T02:55:15;21.48;;;8.95;;
37843;SDS011;63793;57.632;18.292;2024-02-14T02:57:45;15.18;;;4.82;;
37843;SDS011;63793;57.632;18.292;2024-02-14T03:00:12;16.23;;;5.68;;
37843;SDS011;63793;57.632;18.292;2024-02-14T03:02:40;13.00;;;5.18;;
37843;SDS011;63793;57.632;18.292;2024-02-14T03:05:13;10.77;;;4.30;;
37843;SDS011;63793;57.632;18.292;2024-02-14T03:07:45;14.90;;;4.88;;
37843;SDS011;63793;57.632;18.292;2024-02-14T03:10:14;13.52;;;6.10;;
37843;SDS011;63793;57.632;18.292;2024-02-14T03:12:48;13.90;;;4.68;;
37843;SDS011;63793;57.632;18.292;2024-02-14T03:15:15;17.55;;;6.32;;
37843;SDS011;63793;57.632;18.292;2024-02-14T03:17:43;9.45;;;4.70;;
37843;SDS011;63793;57.632;18.292;2024-02-14T03:20:11;14.98;;;4.25;;
37843;SDS011;63793;57.632;18.292;2024-02-14T03:22:44;10.60;;;4.10;;
37843;SDS011;63793;57.632;18.292;2024-02-14T03:25:18;13.40;;;4.68;;
37843;SDS011;63793;57.632;18.292;2024-02-14T03:27:47;10.18;;;4.30;;
37843;SDS011;63793;57.632;18.292;2024-02-14T03:30:19;12.10;;;5.55;;
37843;SDS011;63793;57.632;18.292;2024-02-14T03:32:46;17.95;;;5.10;;
37843;SDS011;63793;57.632;18.292;2024-02-14T03:35:14;19.63;;;5.20;;
37843;SDS011;63793;57.632;18.292;2024-02-14T03:37:42;11.00;;;4.80;;
37843;SDS011;63793;57.632;18.292;2024-02-14T03:40:10;16.10;;;4.07;;
37843;SDS011;63793;57.632;18.292;2024-02-14T03:42:38;12.75;;;4.13;;
37843;SDS011;63793;57.632;18.292;2024-02-14T03:45:08;9.05;;;3.72;;
37843;SDS011;63793;57.632;18.292;2024-02-14T03:47:36;9.32;;;3.00;;
37843;SDS011;63793;57.632;18.292;2024-02-14T03:50:07;12.48;;;4.10;;
37843;SDS011;63793;57.632;18.292;2024-02-14T03:52:34;15.73;;;4.60;;
37843;SDS011;63793;57.632;18.292;2024-02-14T03:55:02;9.23;;;5.38;;
37843;SDS011;63793;57.632;18.292;2024-02-14T03:57:29;16.95;;;4.82;;
37843;SDS011;63793;57.632;18.292;2024-02-14T03:59:59;13.93;;;4.22;;
37843;SDS011;63793;57.632;18.292;2024-02-14T04:02:36;8.90;;;3.40;;
37843;SDS011;63793;57.632;18.292;2024-02-14T04:05:06;13.90;;;4.50;;
37843;SDS011;63793;57.632;18.292;2024-02-14T04:07:34;17.52;;;4.45;;
37843;SDS011;63793;57.632;18.292;2024-02-14T04:10:03;13.98;;;4.40;;
37843;SDS011;63793;57.632;18.292;2024-02-14T04:12:31;9.85;;;4.43;;
37843;SDS011;63793;57.632;18.292;2024-02-14T04:14:58;22.38;;;4.88;;
37843;SDS011;63793;57.632;18.292;2024-02-14T04:17:25;9.15;;;3.80;;
37843;SDS011;63793;57.632;18.292;2024-02-14T04:19:52;11.38;;;4.05;;
37843;SDS011;63793;57.632;18.292;2024-02-14T04:22:19;15.48;;;4.03;;
37843;SDS011;63793;57.632;18.292;2024-02-14T04:24:47;6.32;;;3.88;;
37843;SDS011;63793;57.632;18.292;2024-02-14T04:27:14;15.90;;;4.38;;
37843;SDS011;63793;57.632;18.292;2024-02-14T04:29:44;18.85;;;4.68;;
37843;SDS011;63793;57.632;18.292;2024-02-14T04:32:13;11.15;;;4.43;;
37843;SDS011;63793;57.632;18.292;2024-02-14T04:34:41;16.30;;;6.57;;
37843;SDS011;63793;57.632;18.292;2024-02-14T04:37:10;16.67;;;6.53;;
37843;SDS011;63793;57.632;18.292;2024-02-14T04:39:39;10.07;;;4.80;;
37843;SDS011;63793;57.632;18.292;2024-02-14T04:42:06;10.20;;;3.75;;
37843;SDS011;63793;57.632;18.292;2024-02-14T04:44:34;10.88;;;4.07;;
37843;SDS011;63793;57.632;18.292;2024-02-14T04:47:01;10.93;;;5.22;;
37843;SDS011;63793;57.632;18.292;2024-02-14T04:49:28;9.63;;;4.65;;
37843;SDS011;63793;57.632;18.292;2024-02-14T04:51:58;8.48;;;3.72;;
37843;SDS011;63793;57.632;18.292;2024-02-14T04:54:25;7.97;;;4.10;;
37843;SDS011;63793;57.632;18.292;2024-02-14T04:56:53;12.82;;;3.80;;
37843;SDS011;63793;57.632;18.292;2024-02-14T04:59:25;12.88;;;4.50;;
37843;SDS011;63793;57.632;18.292;2024-02-14T05:01:52;14.25;;;4.00;;
37843;SDS011;63793;57.632;18.292;2024-02-14T05:04:20;11.00;;;4.97;;
37843;SDS011;63793;57.632;18.292;2024-02-14T05:06:48;8.77;;;4.07;;
37843;SDS011;63793;57.632;18.292;2024-02-14T05:09:16;17.55;;;4.05;;
37843;SDS011;63793;57.632;18.292;2024-02-14T05:11:44;13.95;;;5.68;;
37843;SDS011;63793;57.632;18.292;2024-02-14T05:14:11;12.07;;;4.43;;
37843;SDS011;63793;57.632;18.292;2024-02-14T05:16:38;13.90;;;6.65;;
37843;SDS011;63793;57.632;18.292;2024-02-14T05:19:05;8.77;;;4.30;;
37843;SDS011;63793;57.632;18.292;2024-02-14T05:21:32;12.43;;;4.53;;
37843;SDS011;63793;57.632;18.292;2024-02-14T05:23:59;10.40;;;4.57;;
37843;SDS011;63793;57.632;18.292;2024-02-14T05:26:26;8.15;;;5.15;;
37843;SDS011;63793;57.632;18.292;2024-02-14T05:28:53;14.45;;;4.18;;
37843;SDS011;63793;57.632;18.292;2024-02-14T05:31:20;14.02;;;4.72;;
37843;SDS011;63793;57.632;18.292;2024-02-14T05:33:47;5.22;;;3.53;;
37843;SDS011;63793;57.632;18.292;2024-02-14T05:36:14;16.35;;;5.03;;
37843;SDS011;63793;57.632;18.292;2024-02-14T05:38:41;10.40;;;4.20;;
37843;SDS011;63793;57.632;18.292;2024-02-14T05:41:08;8.85;;;4.28;;
37843;SDS011;63793;57.632;18.292;2024-02-14T05:43:35;12.13;;;6.10;;
37843;SDS011;63793;57.632;18.292;2024-02-14T05:46:02;13.75;;;4.75;;
37843;SDS011;63793;57.632;18.292;2024-02-14T05:48:29;13.98;;;5.40;;
37843;SDS011;63793;57.632;18.292;2024-02-14T05:50:56;12.07;;;4.78;;
37843;SDS011;63793;57.632;18.292;2024-02-14T05:53:23;17.23;;;7.78;;
37843;SDS011;63793;57.632;18.292;2024-02-14T05:55:50;20.33;;;7.25;;
37843;SDS011;63793;57.632;18.292;2024-02-14T05:58:17;10.70;;;6.50;;
37843;SDS011;63793;57.632;18.292;2024-02-14T06:00:44;12.98;;;6.43;;
37843;SDS011;63793;57.632;18.292;2024-02-14T06:03:11;11.70;;;5.63;;
37843;SDS011;63793;57.632;18.292;2024-02-14T06:05:38;16.33;;;5.53;;
37843;SDS011;63793;57.632;18.292;2024-02-14T06:08:05;10.63;;;5.82;;
37843;SDS011;63793;57.632;18.292;2024-02-14T06:10:32;11.82;;;5.55;;
37843;SDS011;63793;57.632;18.292;2024-02-14T06:13:00;14.00;;;5.13;;
37843;SDS011;63793;57.632;18.292;2024-02-14T06:15:28;13.82;;;5.45;;
37843;SDS011;63793;57.632;18.292;2024-02-14T06:17:54;10.00;;;5.22;;
37843;SDS011;63793;57.632;18.292;2024-02-14T06:20:22;10.27;;;4.85;;
37843;SDS011;63793;57.632;18.292;2024-02-14T06:22:49;15.07;;;5.25;;
37843;SDS011;63793;57.632;18.292;2024-02-14T06:27:56;13.43;;;6.35;;
37843;SDS011;63793;57.632;18.292;2024-02-14T06:30:24;18.60;;;7.43;;
37843;SDS011;63793;57.632;18.292;2024-02-14T06:32:56;13.20;;;6.88;;
37843;SDS011;63793;57.632;18.292;2024-02-14T06:35:28;15.45;;;7.75;;
37843;SDS011;63793;57.632;18.292;2024-02-14T06:37:56;13.10;;;7.32;;
37843;SDS011;63793;57.632;18.292;2024-02-14T06:40:30;18.90;;;7.28;;
37843;SDS011;63793;57.632;18.292;2024-02-14T06:42:57;16.70;;;6.97;;
37843;SDS011;63793;57.632;18.292;2024-02-14T06:45:26;13.15;;;7.18;;
37843;SDS011;63793;57.632;18.292;2024-02-14T06:47:56;16.20;;;8.05;;
37843;SDS011;63793;57.632;18.292;2024-02-14T06:50:24;12.98;;;8.18;;
37843;SDS011;63793;57.632;18.292;2024-02-14T06:52:55;21.27;;;9.95;;
37843;SDS011;63793;57.632;18.292;2024-02-14T06:55:27;20.42;;;9.57;;
37843;SDS011;63793;57.632;18.292;2024-02-14T06:57:54;16.15;;;9.27;;
37843;SDS011;63793;57.632;18.292;2024-02-14T07:00:21;15.15;;;10.65;;
37843;SDS011;63793;57.632;18.292;2024-02-14T07:02:48;13.05;;;9.38;;
37843;SDS011;63793;57.632;18.292;2024-02-14T07:05:15;20.23;;;11.43;;
37843;SDS011;63793;57.632;18.292;2024-02-14T07:07:42;25.52;;;11.02;;
37843;SDS011;63793;57.632;18.292;2024-02-14T07:10:09;20.40;;;10.25;;
37843;SDS011;63793;57.632;18.292;2024-02-14T07:12:36;22.00;;;9.88;;
37843;SDS011;63793;57.632;18.292;2024-02-14T07:15:04;24.92;;;10.60;;
37843;SDS011;63793;57.632;18.292;2024-02-14T07:17:32;19.50;;;10.65;;
37843;SDS011;63793;57.632;18.292;2024-02-14T07:19:59;16.88;;;9.80;;
37843;SDS011;63793;57.632;18.292;2024-02-14T07:22:27;16.63;;;9.30;;
37843;SDS011;63793;57.632;18.292;2024-02-14T07:24:54;21.00;;;9.82;;
37843;SDS011;63793;57.632;18.292;2024-02-14T07:27:21;23.98;;;10.13;;
37843;SDS011;63793;57.632;18.292;2024-02-14T07:29:50;22.15;;;9.93;;
37843;SDS011;63793;57.632;18.292;2024-02-14T07:32:17;18.40;;;9.20;;
37843;SDS011;63793;57.632;18.292;2024-02-14T07:34:44;14.10;;;8.32;;
37843;SDS011;63793;57.632;18.292;2024-02-14T07:37:11;26.33;;;12.52;;
37843;SDS011;63793;57.632;18.292;2024-02-14T07:39:38;14.95;;;8.98;;
37843;SDS011;63793;57.632;18.292;2024-02-14T07:42:05;15.70;;;8.88;;
37843;SDS011;63793;57.632;18.292;2024-02-14T07:44:32;22.77;;;8.85;;
37843;SDS011;63793;57.632;18.292;2024-02-14T07:46:59;14.43;;;7.80;;
37843;SDS011;63793;57.632;18.292;2024-02-14T07:51:57;18.55;;;8.57;;
37843;SDS011;63793;57.632;18.292;2024-02-14T07:54:24;21.30;;;8.63;;
37843;SDS011;63793;57.632;18.292;2024-02-14T07:56:51;19.40;;;9.43;;
37843;SDS011;63793;57.632;18.292;2024-02-14T07:59:18;20.75;;;7.68;;
37843;SDS011;63793;57.632;18.292;2024-02-14T08:01:47;13.43;;;7.82;;
37843;SDS011;63793;57.632;18.292;2024-02-14T08:04:14;22.17;;;8.75;;
37843;SDS011;63793;57.632;18.292;2024-02-14T08:06:44;12.23;;;8.02;;
37843;SDS011;63793;57.632;18.292;2024-02-14T08:09:12;20.60;;;8.80;;
37843;SDS011;63793;57.632;18.292;2024-02-14T08:11:38;17.50;;;7.53;;
37843;SDS011;63793;57.632;18.292;2024-02-14T08:14:05;23.38;;;9.77;;
37843;SDS011;63793;57.632;18.292;2024-02-14T08:16:32;15.63;;;7.68;;
37843;SDS011;63793;57.632;18.292;2024-02-14T08:18:59;21.42;;;8.82;;
37843;SDS011;63793;57.632;18.292;2024-02-14T08:21:27;22.40;;;8.52;;
37843;SDS011;63793;57.632;18.292;2024-02-14T08:23:57;17.73;;;7.05;;
37843;SDS011;63793;57.632;18.292;2024-02-14T08:26:27;22.05;;;8.27;;
37843;SDS011;63793;57.632;18.292;2024-02-14T08:28:55;21.08;;;10.07;;
37843;SDS011;63793;57.632;18.292;2024-02-14T08:31:22;16.55;;;8.20;;
37843;SDS011;63793;57.632;18.292;2024-02-14T08:33:49;26.70;;;7.43;;
37843;SDS011;63793;57.632;18.292;2024-02-14T08:36:16;16.00;;;8.40;;
37843;SDS011;63793;57.632;18.292;2024-02-14T08:38:45;18.27;;;6.63;;
37843;SDS011;63793;57.632;18.292;2024-02-14T08:41:12;21.10;;;8.10;;
37843;SDS011;63793;57.632;18.292;2024-02-14T08:43:40;22.73;;;8.60;;
37843;SDS011;63793;57.632;18.292;2024-02-14T08:46:12;13.25;;;7.63;;
37843;SDS011;63793;57.632;18.292;2024-02-14T08:48:39;24.13;;;8.02;;
37843;SDS011;63793;57.632;18.292;2024-02-14T08:51:15;22.27;;;8.02;;
37843;SDS011;63793;57.632;18.292;2024-02-14T08:53:43;15.80;;;7.30;;
37843;SDS011;63793;57.632;18.292;2024-02-14T08:56:11;18.27;;;6.75;;
37843;SDS011;63793;57.632;18.292;2024-02-14T08:58:38;18.65;;;8.15;;
37843;SDS011;63793;57.632;18.292;2024-02-14T09:01:06;14.27;;;6.80;;
37843;SDS011;63793;57.632;18.292;2024-02-14T09:03:41;22.38;;;7.43;;
37843;SDS011;63793;57.632;18.292;2024-02-14T09:06:16;21.83;;;7.25;;
37843;SDS011;63793;57.632;18.292;2024-02-14T09:08:47;17.58;;;6.50;;
37843;SDS011;63793;57.632;18.292;2024-02-14T09:11:14;14.82;;;6.47;;
37843;SDS011;63793;57.632;18.292;2024-02-14T09:13:41;19.08;;;7.93;;
37843;SDS011;63793;57.632;18.292;2024-02-14T09:16:08;17.80;;;6.75;;
37843;SDS011;63793;57.632;18.292;2024-02-14T09:18:37;15.52;;;6.75;;
37843;SDS011;63793;57.632;18.292;2024-02-14T09:21:05;11.48;;;6.50;;
37843;SDS011;63793;57.632;18.292;2024-02-14T09:23:33;13.43;;;6.63;;
37843;SDS011;63793;57.632;18.292;2024-02-14T09:26:00;13.48;;;6.03;;
37843;SDS011;63793;57.632;18.292;2024-02-14T09:28:28;15.98;;;6.03;;
37843;SDS011;63793;57.632;18.292;2024-02-14T09:30:55;15.40;;;6.95;;
37843;SDS011;63793;57.632;18.292;2024-02-14T09:33:22;14.60;;;8.25;;
37843;SDS011;63793;57.632;18.292;2024-02-14T09:35:49;18.55;;;7.15;;
37843;SDS011;63793;57.632;18.292;2024-02-14T09:38:18;13.20;;;6.68;;
37843;SDS011;63793;57.632;18.292;2024-02-14T09:40:45;7.47;;;4.93;;
37843;SDS011;63793;57.632;18.292;2024-02-14T09:43:17;18.80;;;6.07;;
37843;SDS011;63793;57.632;18.292;2024-02-14T09:46:01;14.60;;;5.32;;
37843;SDS011;63793;57.632;18.292;2024-02-14T09:48:30;18.60;;;5.38;;
37843;SDS011;63793;57.632;18.292;2024-02-14T09:50:57;12.98;;;4.88;;
37843;SDS011;63793;57.632;18.292;2024-02-14T09:53:26;11.48;;;5.03;;
37843;SDS011;63793;57.632;18.292;2024-02-14T09:55:55;13.32;;;6.15;;
37843;SDS011;63793;57.632;18.292;2024-02-14T09:58:23;15.27;;;5.32;;
37843;SDS011;63793;57.632;18.292;2024-02-14T10:00:51;8.02;;;4.55;;
37843;SDS011;63793;57.632;18.292;2024-02-14T10:03:18;13.65;;;4.60;;
37843;SDS011;63793;57.632;18.292;2024-02-14T10:05:45;16.60;;;6.30;;
37843;SDS011;63793;57.632;18.292;2024-02-14T10:08:12;9.88;;;4.47;;
37843;SDS011;63793;57.632;18.292;2024-02-14T10:10:39;16.58;;;4.10;;
37843;SDS011;63793;57.632;18.292;2024-02-14T10:13:06;8.88;;;4.40;;
37843;SDS011;63793;57.632;18.292;2024-02-14T10:15:34;8.25;;;4.57;;
37843;SDS011;63793;57.632;18.292;2024-02-14T10:18:04;10.23;;;4.15;;
37843;SDS011;63793;57.632;18.292;2024-02-14T10:20:31;11.82;;;3.92;;
37843;SDS011;63793;57.632;18.292;2024-02-14T10:23:01;16.42;;;5.90;;
37843;SDS011;63793;57.632;18.292;2024-02-14T10:25:30;11.80;;;4.65;;
37843;SDS011;63793;57.632;18.292;2024-02-14T10:28:03;6.22;;;4.65;;
37843;SDS011;63793;57.632;18.292;2024-02-14T10:30:31;12.40;;;4.30;;
37843;SDS011;63793;57.632;18.292;2024-02-14T10:32:58;9.38;;;4.15;;
37843;SDS011;63793;57.632;18.292;2024-02-14T10:35:39;14.63;;;4.38;;
37843;SDS011;63793;57.632;18.292;2024-02-14T10:38:08;7.95;;;5.03;;
37843;SDS011;63793;57.632;18.292;2024-02-14T10:40:38;10.18;;;4.78;;
37843;SDS011;63793;57.632;18.292;2024-02-14T10:43:09;8.95;;;4.30;;
37843;SDS011;63793;57.632;18.292;2024-02-14T10:45:36;9.95;;;4.82;;
37843;SDS011;63793;57.632;18.292;2024-02-14T10:48:06;13.07;;;7.65;;
37843;SDS011;63793;57.632;18.292;2024-02-14T10:50:40;14.88;;;6.35;;
37843;SDS011;63793;57.632;18.292;2024-02-14T10:53:12;12.20;;;5.28;;
37843;SDS011;63793;57.632;18.292;2024-02-14T10:55:45;13.82;;;5.38;;
37843;SDS011;63793;57.632;18.292;2024-02-14T10:58:17;20.90;;;7.03;;
37843;SDS011;63793;57.632;18.292;2024-02-14T11:00:45;13.45;;;7.93;;
37843;SDS011;63793;57.632;18.292;2024-02-14T11:03:12;16.33;;;6.85;;
37843;SDS011;63793;57.632;18.292;2024-02-14T11:05:47;19.90;;;8.25;;
37843;SDS011;63793;57.632;18.292;2024-02-14T11:08:19;10.95;;;7.85;;
37843;SDS011;63793;57.632;18.292;2024-02-14T11:10:54;10.82;;;5.97;;
37843;SDS011;63793;57.632;18.292;2024-02-14T11:13:26;13.88;;;6.32;;
37843;SDS011;63793;57.632;18.292;2024-02-14T11:15:54;14.55;;;6.28;;
37843;SDS011;63793;57.632;18.292;2024-02-14T11:18:26;14.48;;;5.40;;
37843;SDS011;63793;57.632;18.292;2024-02-14T11:20:57;12.60;;;6.00;;
37843;SDS011;63793;57.632;18.292;2024-02-14T11:23:29;17.95;;;6.05;;
37843;SDS011;63793;57.632;18.292;2024-02-14T11:28:29;15.18;;;5.43;;
37843;SDS011;63793;57.632;18.292;2024-02-14T11:31:00;12.73;;;6.43;;
37843;SDS011;63793;57.632;18.292;2024-02-14T11:33:30;11.20;;;6.15;;
37843;SDS011;63793;57.632;18.292;2024-02-14T11:35:57;16.65;;;5.95;;
37843;SDS011;63793;57.632;18.292;2024-02-14T11:38:25;14.48;;;5.75;;
37843;SDS011;63793;57.632;18.292;2024-02-14T11:40:55;10.50;;;6.18;;
37843;SDS011;63793;57.632;18.292;2024-02-14T11:43:23;9.60;;;5.35;;
37843;SDS011;63793;57.632;18.292;2024-02-14T11:45:51;13.73;;;6.85;;
37843;SDS011;63793;57.632;18.292;2024-02-14T11:48:19;13.18;;;6.65;;
37843;SDS011;63793;57.632;18.292;2024-02-14T11:50:47;11.50;;;5.55;;
37843;SDS011;63793;57.632;18.292;2024-02-14T11:53:14;13.80;;;6.43;;
37843;SDS011;63793;57.632;18.292;2024-02-14T11:55:45;13.32;;;6.88;;
37843;SDS011;63793;57.632;18.292;2024-02-14T11:58:16;14.63;;;7.05;;
37843;SDS011;63793;57.632;18.292;2024-02-14T12:00:44;21.10;;;8.35;;
37843;SDS011;63793;57.632;18.292;2024-02-14T12:03:15;14.02;;;6.95;;
37843;SDS011;63793;57.632;18.292;2024-02-14T12:05:48;19.35;;;7.10;;
37843;SDS011;63793;57.632;18.292;2024-02-14T12:08:19;13.57;;;6.60;;
37843;SDS011;63793;57.632;18.292;2024-02-14T12:10:48;14.85;;;6.30;;
37843;SDS011;63793;57.632;18.292;2024-02-14T12:13:19;21.08;;;6.53;;
37843;SDS011;63793;57.632;18.292;2024-02-14T12:15:48;17.13;;;6.15;;
37843;SDS011;63793;57.632;18.292;2024-02-14T12:18:17;17.90;;;8.48;;
37843;SDS011;63793;57.632;18.292;2024-02-14T12:20:45;15.27;;;7.18;;
37843;SDS011;63793;57.632;18.292;2024-02-14T12:23:19;21.50;;;8.20;;
37843;SDS011;63793;57.632;18.292;2024-02-14T12:25:47;19.05;;;7.65;;
37843;SDS011;63793;57.632;18.292;2024-02-14T12:28:17;26.30;;;7.85;;
37843;SDS011;63793;57.632;18.292;2024-02-14T12:30:45;26.05;;;8.98;;
37843;SDS011;63793;57.632;18.292;2024-02-14T12:33:16;23.33;;;8.57;;
37843;SDS011;63793;57.632;18.292;2024-02-14T12:35:44;16.45;;;9.00;;
37843;SDS011;63793;57.632;18.292;2024-02-14T12:38:13;23.20;;;8.45;;
37843;SDS011;63793;57.632;18.292;2024-02-14T12:40:41;20.15;;;10.13;;
37843;SDS011;63793;57.632;18.292;2024-02-14T12:43:08;22.42;;;8.07;;
37843;SDS011;63793;57.632;18.292;2024-02-14T12:45:39;24.35;;;9.98;;
37843;SDS011;63793;57.632;18.292;2024-02-14T12:48:07;19.70;;;9.00;;
37843;SDS011;63793;57.632;18.292;2024-02-14T12:50:35;20.70;;;7.88;;
37843;SDS011;63793;57.632;18.292;2024-02-14T12:53:05;17.05;;;8.98;;
37843;SDS011;63793;57.632;18.292;2024-02-14T12:55:33;13.27;;;7.93;;
37843;SDS011;63793;57.632;18.292;2024-02-14T12:58:00;23.38;;;8.63;;
37843;SDS011;63793;57.632;18.292;2024-02-14T13:00:30;19.83;;;7.73;;
37843;SDS011;63793;57.632;18.292;2024-02-14T13:02:59;24.13;;;9.15;;
37843;SDS011;63793;57.632;18.292;2024-02-14T13:05:27;22.17;;;8.20;;
37843;SDS011;63793;57.632;18.292;2024-02-14T13:07:54;19.17;;;8.65;;
37843;SDS011;63793;57.632;18.292;2024-02-14T13:10:21;16.45;;;9.98;;
37843;SDS011;63793;57.632;18.292;2024-02-14T13:12:49;21.20;;;8.88;;
37843;SDS011;63793;57.632;18.292;2024-02-14T13:15:17;20.15;;;9.32;;
37843;SDS011;63793;57.632;18.292;2024-02-14T13:17:44;20.02;;;9.35;;
37843;SDS011;63793;57.632;18.292;2024-02-14T13:20:12;22.55;;;8.30;;
37843;SDS011;63793;57.632;18.292;2024-02-14T13:22:41;14.17;;;8.40;;
37843;SDS011;63793;57.632;18.292;2024-02-14T13:25:09;15.77;;;9.65;;
37843;SDS011;63793;57.632;18.292;2024-02-14T13:27:36;20.83;;;8.80;;
37843;SDS011;63793;57.632;18.292;2024-02-14T13:30:03;18.15;;;10.43;;
37843;SDS011;63793;57.632;18.292;2024-02-14T13:32:30;22.70;;;11.98;;
37843;SDS011;63793;57.632;18.292;2024-02-14T13:34:58;15.65;;;9.60;;
37843;SDS011;63793;57.632;18.292;2024-02-14T13:37:25;22.38;;;11.40;;
37843;SDS011;63793;57.632;18.292;2024-02-14T13:39:52;17.80;;;9.02;;
37843;SDS011;63793;57.632;18.292;2024-02-14T13:42:19;20.02;;;10.95;;
37843;SDS011;63793;57.632;18.292;2024-02-14T13:44:46;21.25;;;10.55;;
37843;SDS011;63793;57.632;18.292;2024-02-14T13:47:13;24.30;;;12.10;;
37843;SDS011;63793;57.632;18.292;2024-02-14T13:49:45;23.30;;;11.07;;
37843;SDS011;63793;57.632;18.292;2024-02-14T13:52:12;19.73;;;9.40;;
37843;SDS011;63793;57.632;18.292;2024-02-14T13:54:39;23.00;;;13.27;;
37843;SDS011;63793;57.632;18.292;2024-02-14T13:57:05;24.33;;;11.52;;
37843;SDS011;63793;57.632;18.292;2024-02-14T13:59:32;21.27;;;11.32;;
37843;SDS011;63793;57.632;18.292;2024-02-14T14:01:59;25.00;;;12.18;;
37843;SDS011;63793;57.632;18.292;2024-02-14T14:04:26;18.90;;;11.52;;
37843;SDS011;63793;57.632;18.292;2024-02-14T14:06:53;18.77;;;11.60;;
37843;SDS011;63793;57.632;18.292;2024-02-14T14:09:21;22.85;;;12.63;;
37843;SDS011;63793;57.632;18.292;2024-02-14T14:11:48;20.27;;;12.30;;
37843;SDS011;63793;57.632;18.292;2024-02-14T14:14:17;24.35;;;13.25;;
37843;SDS011;63793;57.632;18.292;2024-02-14T14:16:45;23.63;;;12.35;;
37843;SDS011;63793;57.632;18.292;2024-02-14T14:19:12;25.65;;;12.70;;
37843;SDS011;63793;57.632;18.292;2024-02-14T14:21:39;23.20;;;13.65;;
37843;SDS011;63793;57.632;18.292;2024-02-14T14:24:06;28.65;;;13.65;;
37843;SDS011;63793;57.632;18.292;2024-02-14T14:26:33;26.35;;;14.82;;
37843;SDS011;63793;57.632;18.292;2024-02-14T14:29:01;22.08;;;12.82;;
37843;SDS011;63793;57.632;18.292;2024-02-14T14:31:28;25.38;;;14.10;;
37843;SDS011;63793;57.632;18.292;2024-02-14T14:33:56;22.05;;;14.48;;